Hassler — WTEK — position and weather

sailwx.info

Track history (hours):
 
Tides and Currents Weather Stations Pressure Air Temp Water Temp Dewpoint Dewpoint Depression Visibility Wind Speed Wind Dir Waves Ship Positions

Oceanographic research ship Hassler (USA)

Last reported at 2015-Mar-02 03:17 UTC. Time now 2015-Mar-06 17:34 UTC.
Position N 39°41' W 073°42'.

Length 37 m; draft 3.8 m.

Type: . MMSI: 369970091.

Date/timePositionNaut miles runAvg speedWind from/ knotsBaromVisibWave heightAir tempDewpointWater temp
2015-Mar-02 03:17N 39°41' W 073°42'3812.4
2015-Mar-02 00:12N 40°05' W 073°03'3212.1
2015-Mar-01 21:33N 40°25' W 072°31'1211.7
2015-Mar-01 20:34N 40°31' W 072°17'1212.1
2015-Mar-01 19:33N 40°32' W 072°02'1212.1
2015-Mar-01 18:33N 40°32' W 071°46'1212.2
2015-Mar-01 17:34N 40°32' W 071°30'1312.4
2015-Mar-01 16:33N 40°32' W 071°13'1212.4
2015-Mar-01 15:33N 40°33' W 070°57'1312.3
2015-Mar-01 14:31N 40°33' W 070°40'1212.2
2015-Mar-01 13:33N 40°33' W 070°25'1111.5
2015-Mar-01 12:33N 40°34' W 070°10'1110.5
2015-Mar-01 11:33N 40°34' W 069°56'134 8.9
2015-Feb-28 20:32N 42°45' W 070°30'1211.8
2015-Feb-28 19:34N 42°55' W 070°38'  
Track history (hours):
 
Tides and Currents Weather Stations Pressure Air Temp Water Temp Dewpoint Dewpoint Depression Visibility Wind Speed Wind Dir Waves Ship Positions

Oceanographic research ship Hassler (USA)

Last reported at 2015-Mar-02 03:17 UTC. Time now 2015-Mar-06 17:34 UTC.
Position N 39°41' W 073°42'.

Length 37 m; draft 3.8 m.

Type: . MMSI: 369970091.

Date/timePositionNaut miles runAvg speedWind from/ knotsBaromVisibWave heightAir tempDewpointWater temp
2015-Mar-02 03:17N 39°41' W 073°42'3812.4
2015-Mar-02 00:12N 40°05' W 073°03'3212.1
2015-Mar-01 21:33N 40°25' W 072°31'1211.7
2015-Mar-01 20:34N 40°31' W 072°17'1212.1
2015-Mar-01 19:33N 40°32' W 072°02'1212.1
2015-Mar-01 18:33N 40°32' W 071°46'1212.2
2015-Mar-01 17:34N 40°32' W 071°30'1312.4
2015-Mar-01 16:33N 40°32' W 071°13'1212.4
2015-Mar-01 15:33N 40°33' W 070°57'1312.3
2015-Mar-01 14:31N 40°33' W 070°40'1212.2
2015-Mar-01 13:33N 40°33' W 070°25'1111.5
2015-Mar-01 12:33N 40°34' W 070°10'1110.5
2015-Mar-01 11:33N 40°34' W 069°56'134 8.9
2015-Feb-28 20:32N 42°45' W 070°30'1211.8
2015-Feb-28 19:34N 42°55' W 070°38'  

Dump ship's entire track history